createdAt,value
2022-09-09T00:01:38.804Z,15.19
2022-09-09T00:04:22.096Z,15.02
2022-09-09T00:07:04.748Z,14.85
2022-09-09T00:09:50.399Z,14.76
2022-09-09T00:12:32.991Z,14.69
2022-09-09T00:15:14.427Z,14.71
2022-09-09T00:17:55.822Z,14.68
2022-09-09T00:20:37.176Z,14.54
2022-09-09T00:23:21.233Z,14.46
2022-09-09T00:26:05.203Z,14.44
2022-09-09T00:28:46.561Z,14.36
2022-09-09T00:31:23.565Z,14.32
2022-09-09T00:34:02.371Z,14.32
2022-09-09T00:36:35.808Z,14.34
2022-09-09T00:39:12.929Z,14.32
2022-09-09T00:42:01.413Z,14.28
2022-09-09T00:44:37.095Z,14.27
2022-09-09T00:47:28.518Z,14.25
2022-09-09T00:50:12.025Z,14.30
2022-09-09T00:52:55.236Z,14.30
2022-09-09T00:55:37.126Z,14.29
2022-09-09T00:58:11.377Z,14.14
2022-09-09T01:00:50.533Z,14.07
2022-09-09T01:03:32.179Z,14.05
2022-09-09T01:06:23.745Z,14.01
2022-09-09T01:09:18.997Z,13.96
2022-09-09T01:12:00.602Z,13.96
2022-09-09T01:14:45.850Z,13.92
2022-09-09T01:17:24.678Z,13.92
2022-09-09T01:20:11.364Z,13.98
2022-09-09T01:23:03.357Z,13.98
2022-09-09T01:26:12.454Z,13.96
2022-09-09T01:28:48.665Z,13.89
2022-09-09T01:31:26.946Z,13.94
2022-09-09T01:34:00.110Z,13.96
2022-09-09T01:36:43.598Z,13.93
2022-09-09T01:39:17.073Z,13.90
2022-09-09T01:41:51.555Z,13.84
2022-09-09T01:44:27.194Z,13.87
2022-09-09T01:47:00.523Z,13.97
2022-09-09T01:49:34.306Z,14.05
2022-09-09T01:52:13.638Z,14.10
2022-09-09T01:54:46.772Z,14.06
2022-09-09T01:57:30.669Z,14.10
2022-09-09T02:00:10.860Z,14.13
2022-09-09T02:02:57.998Z,14.21
2022-09-09T02:05:42.012Z,14.25
2022-09-09T02:08:32.180Z,14.33
2022-09-09T02:11:13.836Z,14.29
2022-09-09T02:13:57.633Z,14.18
2022-09-09T02:16:35.592Z,14.20
2022-09-09T02:19:14.714Z,14.22
2022-09-09T02:22:11.905Z,14.17
2022-09-09T02:24:47.513Z,14.19
2022-09-09T02:27:26.283Z,14.17
2022-09-09T02:30:03.494Z,14.14
2022-09-09T02:32:44.931Z,14.15
2022-09-09T02:35:22.826Z,14.21
2022-09-09T02:38:00.549Z,14.21
2022-09-09T02:40:33.984Z,14.24
2022-09-09T02:43:19.901Z,14.19
2022-09-09T02:46:03.699Z,14.18
2022-09-09T02:48:47.502Z,14.15
2022-09-09T02:51:27.087Z,14.09
2022-09-09T02:54:11.963Z,14.12
2022-09-09T02:56:51.317Z,14.05
2022-09-09T02:59:27.698Z,14.03
2022-09-09T03:02:01.581Z,14.07
2022-09-09T03:04:35.853Z,14.16
2022-09-09T03:07:08.988Z,14.18
2022-09-09T03:09:43.384Z,14.18
2022-09-09T03:12:17.636Z,14.21
2022-09-09T03:14:51.153Z,14.14
2022-09-09T03:17:25.023Z,14.15
2022-09-09T03:20:00.313Z,14.20
2022-09-09T03:22:33.826Z,14.27
2022-09-09T03:25:10.636Z,14.24
2022-09-09T03:27:43.774Z,14.26
2022-09-09T03:30:18.368Z,14.25
2022-09-09T03:32:52.053Z,14.16
2022-09-09T03:35:25.379Z,14.18
2022-09-09T03:37:58.964Z,14.26
2022-09-09T03:40:32.305Z,14.29
2022-09-09T03:43:05.399Z,14.33
2022-09-09T03:45:38.530Z,14.35
2022-09-09T03:48:13.277Z,14.39
2022-09-09T03:50:50.409Z,14.37
2022-09-09T03:53:25.933Z,14.25
2022-09-09T03:56:01.986Z,14.28
2022-09-09T03:58:37.256Z,14.31
2022-09-09T04:01:16.078Z,14.29
2022-09-09T04:03:49.953Z,14.34
2022-09-09T04:06:23.459Z,14.41
2022-09-09T04:08:56.796Z,14.39
2022-09-09T04:11:30.280Z,14.36
2022-09-09T04:14:05.503Z,14.43
2022-09-09T04:16:39.272Z,14.36
2022-09-09T04:19:13.730Z,14.27
2022-09-09T04:21:47.805Z,14.23
2022-09-09T04:24:21.488Z,14.20
2022-09-09T04:26:54.774Z,14.21
2022-09-09T04:29:27.968Z,14.26
2022-09-09T04:32:00.932Z,14.26
2022-09-09T04:34:34.165Z,14.31
2022-09-09T04:37:07.758Z,14.32
2022-09-09T04:39:41.006Z,14.35
2022-09-09T04:42:14.265Z,14.40
2022-09-09T04:44:49.053Z,14.45
2022-09-09T04:47:22.780Z,14.50
2022-09-09T04:49:56.267Z,14.55
2022-09-09T04:52:29.424Z,14.48
2022-09-09T04:55:03.123Z,14.43
2022-09-09T04:57:37.001Z,14.40
2022-09-09T05:00:14.138Z,14.41
2022-09-09T05:02:48.900Z,14.36
2022-09-09T05:05:22.478Z,14.39
2022-09-09T05:07:56.399Z,14.42
2022-09-09T05:10:32.344Z,14.51
2022-09-09T05:13:06.044Z,14.60
2022-09-09T05:15:40.016Z,14.59
2022-09-09T05:18:13.810Z,14.53
2022-09-09T05:20:46.881Z,14.57
2022-09-09T05:23:20.151Z,14.66
2022-09-09T05:26:00.638Z,14.68
2022-09-09T05:28:36.685Z,14.74
2022-09-09T05:31:12.671Z,14.82
2022-09-09T05:33:48.149Z,14.79
2022-09-09T05:36:22.886Z,14.75
2022-09-09T05:38:58.759Z,14.76
2022-09-09T05:41:33.088Z,14.77
2022-09-09T05:44:08.494Z,14.79
2022-09-09T05:46:46.049Z,14.79
2022-09-09T05:49:19.766Z,14.79
2022-09-09T05:51:54.226Z,14.77
2022-09-09T05:54:27.495Z,14.78
2022-09-09T05:57:04.647Z,14.75
2022-09-09T05:59:38.086Z,14.73
2022-09-09T06:02:13.885Z,14.67
2022-09-09T06:04:47.013Z,14.67
2022-09-09T06:07:24.075Z,14.56
2022-09-09T06:09:57.582Z,14.58
2022-09-09T06:12:34.426Z,14.69
2022-09-09T06:15:10.347Z,14.82
2022-09-09T06:17:44.441Z,14.87
2022-09-09T06:20:18.867Z,14.84
2022-09-09T06:22:52.255Z,14.72
2022-09-09T06:25:26.435Z,14.68
2022-09-09T06:27:59.651Z,14.72
2022-09-09T06:30:33.082Z,14.80
2022-09-09T06:33:07.223Z,14.86
2022-09-09T06:35:40.620Z,14.87
2022-09-09T06:38:13.697Z,14.90
2022-09-09T06:40:53.252Z,14.90
2022-09-09T06:43:27.256Z,14.84
2022-09-09T06:46:03.115Z,14.85
2022-09-09T06:48:36.285Z,14.87
2022-09-09T06:51:12.874Z,14.87
2022-09-09T06:53:48.901Z,14.90
2022-09-09T06:56:29.399Z,14.94
2022-09-09T06:59:05.251Z,14.94
2022-09-09T07:01:42.146Z,14.89
2022-09-09T07:04:17.891Z,14.86
2022-09-09T07:06:51.523Z,14.91
2022-09-09T07:09:28.776Z,14.98
2022-09-09T07:12:02.390Z,14.94
2022-09-09T07:14:39.358Z,14.95
2022-09-09T07:17:14.286Z,15.04
2022-09-09T07:19:49.754Z,15.09
2022-09-09T07:22:26.396Z,15.18
2022-09-09T07:25:00.540Z,15.23
2022-09-09T07:27:36.469Z,15.25
2022-09-09T07:30:14.946Z,15.30
2022-09-09T07:32:58.127Z,15.35
2022-09-09T07:35:32.091Z,15.27
2022-09-09T07:38:07.877Z,15.27
2022-09-09T07:40:41.774Z,15.37
2022-09-09T07:43:17.359Z,15.32
2022-09-09T07:45:59.506Z,15.36
2022-09-09T07:48:33.225Z,15.41
2022-09-09T07:51:14.945Z,15.46
2022-09-09T07:53:49.537Z,15.49
2022-09-09T07:56:24.491Z,15.56
2022-09-09T07:58:59.918Z,15.62
2022-09-09T08:01:36.885Z,15.69
2022-09-09T08:04:16.875Z,15.62
2022-09-09T08:06:54.145Z,15.52
2022-09-09T08:09:30.640Z,15.42
2022-09-09T08:12:15.670Z,15.44
2022-09-09T08:14:55.468Z,15.47
2022-09-09T08:17:32.849Z,15.50
2022-09-09T08:20:12.466Z,15.41
2022-09-09T08:22:46.694Z,15.38
2022-09-09T08:25:21.405Z,15.44
2022-09-09T08:27:57.433Z,15.43
2022-09-09T08:30:31.483Z,15.39
2022-09-09T08:33:06.689Z,15.36
2022-09-09T08:35:40.737Z,15.31
2022-09-09T08:38:15.685Z,15.34
2022-09-09T08:40:52.460Z,15.37
2022-09-09T08:43:30.747Z,15.40
2022-09-09T08:46:13.385Z,15.44
2022-09-09T08:48:56.898Z,15.38
2022-09-09T08:51:35.948Z,15.30
2022-09-09T08:54:11.380Z,15.31
2022-09-09T08:56:45.848Z,15.34
2022-09-09T08:59:21.712Z,15.36
2022-09-09T09:02:16.504Z,15.49
2022-09-09T09:05:08.516Z,15.62
2022-09-09T09:07:57.867Z,15.68
2022-09-09T09:10:48.186Z,15.73
2022-09-09T09:13:44.045Z,15.77
2022-09-09T09:16:29.658Z,15.73
2022-09-09T09:19:07.463Z,15.69
2022-09-09T09:21:45.080Z,15.68
2022-09-09T09:24:23.070Z,15.73
2022-09-09T09:26:56.980Z,15.77
2022-09-09T09:29:31.715Z,15.81
2022-09-09T09:32:09.134Z,15.81
2022-09-09T09:34:42.559Z,15.77
2022-09-09T09:37:26.131Z,15.76
2022-09-09T09:40:10.580Z,15.74
2022-09-09T09:42:54.555Z,15.79
2022-09-09T09:46:06.869Z,15.86
2022-09-09T09:48:41.713Z,15.81
2022-09-09T09:51:20.077Z,15.78
2022-09-09T09:53:57.198Z,15.84
2022-09-09T09:56:33.747Z,15.99
2022-09-09T09:59:17.817Z,16.11
2022-09-09T10:02:16.309Z,16.18
2022-09-09T10:04:50.613Z,16.27
2022-09-09T10:07:26.556Z,16.35
2022-09-09T10:10:01.958Z,16.43
2022-09-09T10:12:51.702Z,16.49
2022-09-09T10:15:38.102Z,16.58
2022-09-09T10:18:25.397Z,16.58
2022-09-09T10:21:09.031Z,16.63
2022-09-09T10:23:58.812Z,16.68
2022-09-09T10:26:47.667Z,16.64
2022-09-09T10:29:32.468Z,16.57
2022-09-09T10:32:35.969Z,16.51
2022-09-09T10:35:15.129Z,16.53
2022-09-09T10:38:18.416Z,16.58
2022-09-09T10:41:09.809Z,16.52
2022-09-09T10:44:06.476Z,16.52
2022-09-09T10:46:56.366Z,16.50
2022-09-09T10:49:46.335Z,16.52
2022-09-09T10:52:26.907Z,16.54
2022-09-09T10:55:25.593Z,16.58
2022-09-09T10:58:03.235Z,16.62
2022-09-09T11:00:44.387Z,16.63
2022-09-09T11:03:31.910Z,16.59
2022-09-09T11:06:22.075Z,16.55
2022-09-09T11:08:58.416Z,16.38
2022-09-09T11:11:38.390Z,16.39
2022-09-09T11:14:19.068Z,16.45
2022-09-09T11:16:56.625Z,16.42
2022-09-09T11:19:36.892Z,16.40
2022-09-09T11:22:18.441Z,16.42
2022-09-09T11:24:55.964Z,16.39
2022-09-09T11:27:40.835Z,16.37
2022-09-09T11:30:56.229Z,16.46
2022-09-09T11:33:58.948Z,16.55
2022-09-09T11:36:45.899Z,16.55
2022-09-09T11:39:47.932Z,16.56
2022-09-09T11:42:31.842Z,16.58
2022-09-09T11:45:22.335Z,16.60
2022-09-09T11:48:00.535Z,16.69
2022-09-09T11:50:41.567Z,16.62
2022-09-09T11:53:26.731Z,16.55
2022-09-09T11:56:28.683Z,16.52
2022-09-09T11:59:08.976Z,16.46
2022-09-09T12:01:53.064Z,16.51
2022-09-09T12:04:59.379Z,16.63
2022-09-09T12:07:44.106Z,16.72
2022-09-09T12:10:30.052Z,16.73
2022-09-09T12:13:20.940Z,16.81
2022-09-09T12:15:55.616Z,16.87
2022-09-09T12:18:36.049Z,16.80
2022-09-09T12:21:20.791Z,16.71
2022-09-09T12:23:58.376Z,16.71
2022-09-09T12:26:40.870Z,16.68
2022-09-09T12:29:37.785Z,16.71
2022-09-09T12:32:34.891Z,16.66
2022-09-09T12:35:22.977Z,16.67
2022-09-09T12:38:01.438Z,16.74
2022-09-09T12:40:37.588Z,16.77
2022-09-09T12:43:25.931Z,16.77
2022-09-09T12:46:02.879Z,16.78
2022-09-09T12:48:43.947Z,16.82
2022-09-09T12:51:29.507Z,16.90
2022-09-09T12:54:06.789Z,16.92
2022-09-09T12:56:41.067Z,16.97
2022-09-09T12:59:28.096Z,17.02
2022-09-09T13:02:02.063Z,17.13
2022-09-09T13:04:36.573Z,17.17
2022-09-09T13:07:17.502Z,17.16
2022-09-09T13:09:53.767Z,17.07
2022-09-09T13:12:28.699Z,16.99
2022-09-09T13:15:03.654Z,16.95
2022-09-09T13:17:37.409Z,17.04
2022-09-09T13:20:22.457Z,17.15
2022-09-09T13:22:59.635Z,17.14
2022-09-09T13:26:00.735Z,17.18
2022-09-09T13:28:39.032Z,17.28
2022-09-09T13:31:28.649Z,17.34
2022-09-09T13:34:02.005Z,17.34
2022-09-09T13:36:37.549Z,17.39
2022-09-09T13:39:25.938Z,17.33
2022-09-09T13:42:00.772Z,17.31
2022-09-09T13:45:05.779Z,17.26
2022-09-09T13:47:56.687Z,17.27
2022-09-09T13:50:34.935Z,17.25
2022-09-09T13:53:11.705Z,17.25
2022-09-09T13:55:52.219Z,17.25
2022-09-09T13:58:31.182Z,17.19
2022-09-09T14:01:29.345Z,17.09
2022-09-09T14:04:04.890Z,17.11
2022-09-09T14:06:44.924Z,17.13
2022-09-09T14:09:27.117Z,17.15
2022-09-09T14:12:01.042Z,17.19
2022-09-09T14:14:46.614Z,17.21
2022-09-09T14:17:21.303Z,17.16
2022-09-09T14:19:58.784Z,17.14
2022-09-09T14:22:40.517Z,17.15
2022-09-09T14:25:15.622Z,17.10
2022-09-09T14:27:54.676Z,16.98
2022-09-09T14:30:42.702Z,16.95
2022-09-09T14:33:18.641Z,16.92
2022-09-09T14:36:00.410Z,16.93
2022-09-09T14:38:34.916Z,16.94
2022-09-09T14:41:18.329Z,16.96
2022-09-09T14:43:59.015Z,17.05
2022-09-09T14:46:35.181Z,17.10
2022-09-09T14:49:08.686Z,17.10
2022-09-09T14:51:42.103Z,17.10
2022-09-09T14:54:16.144Z,17.04
2022-09-09T14:56:58.435Z,16.97
2022-09-09T14:59:31.752Z,17.00
2022-09-09T15:02:05.731Z,17.03
2022-09-09T15:04:41.872Z,17.03
2022-09-09T15:07:15.051Z,17.06
2022-09-09T15:10:10.534Z,17.04
2022-09-09T15:12:44.204Z,17.05
2022-09-09T15:15:17.739Z,17.09
2022-09-09T15:17:50.956Z,17.14
2022-09-09T15:20:24.241Z,17.16
2022-09-09T15:22:57.691Z,17.11
2022-09-09T15:25:31.028Z,17.16
2022-09-09T15:28:04.402Z,17.22
2022-09-09T15:30:38.017Z,17.28
2022-09-09T15:33:13.481Z,17.32
2022-09-09T15:35:47.379Z,17.29
2022-09-09T15:38:20.910Z,17.27
2022-09-09T15:40:59.869Z,17.24
2022-09-09T15:43:33.077Z,17.27
2022-09-09T15:46:25.693Z,17.31
2022-09-09T15:49:01.435Z,17.37
2022-09-09T15:51:48.042Z,17.41
2022-09-09T15:54:25.276Z,17.38
2022-09-09T15:57:01.155Z,17.36
2022-09-09T15:59:38.096Z,17.38
2022-09-09T16:02:12.140Z,17.41
2022-09-09T16:04:54.986Z,17.45
2022-09-09T16:07:28.336Z,17.42
2022-09-09T16:10:02.018Z,17.39
2022-09-09T16:12:36.010Z,17.32
2022-09-09T16:15:11.621Z,17.28
2022-09-09T16:17:46.105Z,17.24
2022-09-09T16:20:20.381Z,17.18
2022-09-09T16:22:53.485Z,17.11
2022-09-09T16:25:27.008Z,17.08
2022-09-09T16:28:03.204Z,17.07
2022-09-09T16:30:39.677Z,17.05
2022-09-09T16:33:15.938Z,17.03
2022-09-09T16:35:50.491Z,17.08
2022-09-09T16:38:23.753Z,17.14
2022-09-09T16:41:03.328Z,17.16
2022-09-09T16:43:37.808Z,17.13
2022-09-09T16:46:18.262Z,17.08
2022-09-09T16:48:51.817Z,17.06
2022-09-09T16:51:27.103Z,17.08
2022-09-09T16:54:03.218Z,17.09
2022-09-09T16:56:38.235Z,17.06
2022-09-09T16:59:14.572Z,17.03
2022-09-09T17:01:49.393Z,16.98
2022-09-09T17:04:25.453Z,16.91
2022-09-09T17:07:01.651Z,16.90
2022-09-09T17:09:35.237Z,16.87
2022-09-09T17:12:13.347Z,16.86
2022-09-09T17:14:46.869Z,16.88
2022-09-09T17:17:40.365Z,16.91
2022-09-09T17:20:18.289Z,16.90
2022-09-09T17:22:54.602Z,16.93
2022-09-09T17:25:27.854Z,16.96
2022-09-09T17:28:02.878Z,16.98
2022-09-09T17:30:39.438Z,16.96
2022-09-09T17:33:12.582Z,16.95
2022-09-09T17:35:49.569Z,16.96
2022-09-09T17:38:28.059Z,16.91
2022-09-09T17:41:11.925Z,16.89
2022-09-09T17:43:45.843Z,16.89
2022-09-09T17:46:22.768Z,16.81
2022-09-09T17:48:59.260Z,16.78
2022-09-09T17:51:35.141Z,16.80
2022-09-09T17:54:10.384Z,16.82
2022-09-09T17:56:45.300Z,16.80
2022-09-09T17:59:19.875Z,16.71
2022-09-09T18:02:14.927Z,16.62
2022-09-09T18:04:48.611Z,16.59
2022-09-09T18:07:22.287Z,16.61
2022-09-09T18:10:05.959Z,16.55
2022-09-09T18:12:39.258Z,16.49
2022-09-09T18:15:20.962Z,16.48
2022-09-09T18:18:07.348Z,16.46
2022-09-09T18:21:06.863Z,16.46
2022-09-09T18:23:42.699Z,16.48
2022-09-09T18:26:17.981Z,16.52
2022-09-09T18:28:54.152Z,16.51
2022-09-09T18:31:29.323Z,16.46
2022-09-09T18:34:04.402Z,16.40
2022-09-09T18:36:40.457Z,16.36
2022-09-09T18:39:15.866Z,16.34
2022-09-09T18:41:52.363Z,16.30
2022-09-09T18:44:30.753Z,16.34
2022-09-09T18:47:05.271Z,16.31
2022-09-09T18:49:38.992Z,16.26
2022-09-09T18:52:13.105Z,16.26
2022-09-09T18:54:46.701Z,16.29
2022-09-09T18:57:21.115Z,16.28
2022-09-09T18:59:55.757Z,16.24
2022-09-09T19:02:31.518Z,16.21
2022-09-09T19:05:08.465Z,16.21
2022-09-09T19:07:42.256Z,16.27
2022-09-09T19:10:18.779Z,16.28
2022-09-09T19:12:52.704Z,16.27
2022-09-09T19:15:26.203Z,16.27
2022-09-09T19:18:03.981Z,16.24
2022-09-09T19:20:42.496Z,16.20
2022-09-09T19:23:36.184Z,16.08
2022-09-09T19:26:11.385Z,15.97
2022-09-09T19:28:56.473Z,15.92
2022-09-09T19:31:31.104Z,15.87
2022-09-09T19:34:04.549Z,15.86
2022-09-09T19:36:38.107Z,15.85
2022-09-09T19:39:13.136Z,15.90
2022-09-09T19:41:47.431Z,15.98
2022-09-09T19:44:22.282Z,16.00
2022-09-09T19:46:59.983Z,16.02
2022-09-09T19:49:33.548Z,16.10
2022-09-09T19:52:07.131Z,16.18
2022-09-09T19:54:40.383Z,16.19
2022-09-09T19:57:13.972Z,16.18
2022-09-09T19:59:47.584Z,16.15
2022-09-09T20:02:58.079Z,16.16
2022-09-09T20:05:38.392Z,16.10
2022-09-09T20:08:11.574Z,16.03
2022-09-09T20:10:54.684Z,16.04
2022-09-09T20:13:27.784Z,16.04
2022-09-09T20:16:04.220Z,16.00
2022-09-09T20:18:48.135Z,15.96
2022-09-09T20:21:26.363Z,15.96
2022-09-09T20:24:03.881Z,16.00
2022-09-09T20:26:48.468Z,16.05
2022-09-09T20:29:26.488Z,16.09
2022-09-09T20:31:59.571Z,16.14
2022-09-09T20:34:32.975Z,16.17
2022-09-09T20:37:06.482Z,16.15
2022-09-09T20:39:40.334Z,16.08
2022-09-09T20:42:13.522Z,16.09
2022-09-09T20:44:47.379Z,16.09
2022-09-09T20:47:20.597Z,16.13
2022-09-09T20:49:53.825Z,16.13
2022-09-09T20:52:27.635Z,16.16
2022-09-09T20:55:01.021Z,16.20
2022-09-09T20:57:37.549Z,16.23
2022-09-09T21:00:13.671Z,16.22
2022-09-09T21:02:46.910Z,16.24
2022-09-09T21:05:24.086Z,16.22
2022-09-09T21:08:06.905Z,16.17
2022-09-09T21:10:46.142Z,16.13
2022-09-09T21:13:19.407Z,16.13
2022-09-09T21:15:53.915Z,16.17
2022-09-09T21:18:29.558Z,16.20
2022-09-09T21:21:03.169Z,16.27
2022-09-09T21:23:37.126Z,16.31
2022-09-09T21:26:11.335Z,16.33
2022-09-09T21:28:44.791Z,16.28
2022-09-09T21:31:21.754Z,16.28
2022-09-09T21:33:59.187Z,16.30
2022-09-09T21:36:34.125Z,16.29
2022-09-09T21:39:07.613Z,16.30
2022-09-09T21:41:41.057Z,16.28
2022-09-09T21:44:14.750Z,16.21
2022-09-09T21:46:48.325Z,16.11
2022-09-09T21:49:21.798Z,16.07
2022-09-09T21:51:55.469Z,16.04
2022-09-09T21:54:32.010Z,16.04
2022-09-09T21:57:07.884Z,16.08
2022-09-09T21:59:42.449Z,16.04
2022-09-09T22:02:16.978Z,16.03
2022-09-09T22:04:53.778Z,16.06
2022-09-09T22:07:26.992Z,16.06
2022-09-09T22:10:00.565Z,15.99
2022-09-09T22:12:35.557Z,15.94
2022-09-09T22:15:10.272Z,15.96
2022-09-09T22:17:43.439Z,15.97
2022-09-09T22:20:16.817Z,15.96
2022-09-09T22:22:49.909Z,16.00
2022-09-09T22:25:23.484Z,16.00
2022-09-09T22:27:59.001Z,15.96
2022-09-09T22:30:32.225Z,15.92
2022-09-09T22:33:05.548Z,15.90
2022-09-09T22:35:44.196Z,15.94
2022-09-09T22:38:18.076Z,15.98
2022-09-09T22:40:52.297Z,16.01
2022-09-09T22:43:25.908Z,16.05
2022-09-09T22:45:59.047Z,16.10
2022-09-09T22:48:35.633Z,16.12
2022-09-09T22:51:11.111Z,16.15
2022-09-09T22:53:49.701Z,16.06
2022-09-09T22:56:23.117Z,15.98
2022-09-09T22:59:07.870Z,15.97
2022-09-09T23:01:41.226Z,15.94
2022-09-09T23:04:15.178Z,15.86
2022-09-09T23:06:48.245Z,15.82
2022-09-09T23:09:21.625Z,15.86
2022-09-09T23:11:55.029Z,15.85
2022-09-09T23:14:34.294Z,15.79
2022-09-09T23:17:07.556Z,15.77
2022-09-09T23:19:40.684Z,15.75
2022-09-09T23:22:15.456Z,15.72
2022-09-09T23:24:49.415Z,15.74
2022-09-09T23:27:22.916Z,15.73
2022-09-09T23:29:57.065Z,15.65
2022-09-09T23:32:40.710Z,15.70
2022-09-09T23:35:14.262Z,15.72
2022-09-09T23:37:54.799Z,15.63
2022-09-09T23:40:27.931Z,15.58
2022-09-09T23:43:01.100Z,15.61
2022-09-09T23:45:34.167Z,15.60
2022-09-09T23:48:08.013Z,15.58
2022-09-09T23:50:41.376Z,15.53
2022-09-09T23:53:18.064Z,15.53
2022-09-09T23:55:55.117Z,15.56
2022-09-09T23:58:28.381Z,15.52
